createdAt,value
2023-05-03T00:00:33.578Z,10.10
2023-05-03T00:03:01.235Z,10.10
2023-05-03T00:05:29.701Z,10.10
2023-05-03T00:07:57.442Z,10.10
2023-05-03T00:10:24.694Z,9.90
2023-05-03T00:12:52.226Z,9.90
2023-05-03T00:15:19.229Z,9.80
2023-05-03T00:17:46.263Z,9.90
2023-05-03T00:20:13.548Z,9.80
2023-05-03T00:22:42.315Z,9.90
2023-05-03T00:25:10.200Z,9.90
2023-05-03T00:27:43.838Z,9.90
2023-05-03T00:30:11.835Z,9.80
2023-05-03T00:32:39.471Z,9.80
2023-05-03T00:35:08.004Z,9.80
2023-05-03T00:37:35.745Z,9.70
2023-05-03T00:40:05.382Z,9.80
2023-05-03T00:42:36.255Z,9.80
2023-05-03T00:45:09.208Z,9.60
2023-05-03T00:47:48.973Z,9.60
2023-05-03T00:50:16.712Z,9.40
2023-05-03T00:52:44.226Z,9.30
2023-05-03T00:55:15.073Z,9.30
2023-05-03T00:57:42.531Z,9.40
2023-05-03T01:00:13.831Z,9.30
2023-05-03T01:02:41.667Z,9.40
2023-05-03T01:05:09.392Z,9.20
2023-05-03T01:07:48.901Z,9.20
2023-05-03T01:10:32.240Z,9.10
2023-05-03T01:13:18.264Z,9.10
2023-05-03T01:15:54.092Z,9.20
2023-05-03T01:18:30.693Z,9.00
2023-05-03T01:21:01.879Z,9.10
2023-05-03T01:23:34.834Z,9.00
2023-05-03T01:26:20.775Z,9.00
2023-05-03T01:28:51.784Z,8.70
2023-05-03T01:31:28.426Z,8.60
2023-05-03T01:34:07.155Z,8.70
2023-05-03T01:36:41.617Z,8.70
2023-05-03T01:39:16.756Z,8.80
2023-05-03T01:41:52.527Z,8.90
2023-05-03T01:44:21.739Z,8.90
2023-05-03T01:46:49.677Z,8.70
2023-05-03T01:49:17.142Z,8.60
2023-05-03T01:51:50.235Z,8.50
2023-05-03T01:54:18.500Z,8.40
2023-05-03T01:56:47.765Z,8.50
2023-05-03T01:59:16.216Z,8.40
2023-05-03T02:01:43.795Z,8.50
2023-05-03T02:04:11.746Z,8.50
2023-05-03T02:06:38.840Z,8.50
2023-05-03T02:09:09.110Z,8.50
2023-05-03T02:11:38.318Z,8.50
2023-05-03T02:14:05.756Z,8.40
2023-05-03T02:16:41.673Z,8.10
2023-05-03T02:19:15.372Z,8.20
2023-05-03T02:21:42.892Z,8.40
2023-05-03T02:24:09.938Z,8.40
2023-05-03T02:26:46.331Z,8.20
2023-05-03T02:29:13.839Z,8.10
2023-05-03T02:31:45.364Z,8.10
2023-05-03T02:34:15.761Z,8.00
2023-05-03T02:36:43.385Z,7.90
2023-05-03T02:39:11.019Z,7.90
2023-05-03T02:41:41.588Z,7.70
2023-05-03T02:44:12.209Z,7.90
2023-05-03T02:46:40.493Z,8.00
2023-05-03T02:49:09.136Z,8.00
2023-05-03T02:51:37.104Z,7.90
2023-05-03T02:54:10.952Z,7.80
2023-05-03T02:56:38.956Z,7.90
2023-05-03T02:59:05.924Z,7.50
2023-05-03T03:01:34.084Z,7.60
2023-05-03T03:04:09.899Z,7.60
2023-05-03T03:06:37.162Z,7.60
2023-05-03T03:09:10.436Z,7.60
2023-05-03T03:11:37.494Z,7.60
2023-05-03T03:14:05.083Z,7.60
2023-05-03T03:16:32.359Z,7.40
2023-05-03T03:19:09.971Z,7.50
2023-05-03T03:21:43.142Z,7.40
2023-05-03T03:24:13.085Z,7.50
2023-05-03T03:26:40.599Z,7.40
2023-05-03T03:29:10.823Z,7.40
2023-05-03T03:31:38.439Z,7.50
2023-05-03T03:34:13.829Z,7.50
2023-05-03T03:36:41.463Z,7.60
2023-05-03T03:39:08.497Z,7.40
2023-05-03T03:41:39.037Z,7.40
2023-05-03T03:44:07.036Z,7.30
2023-05-03T03:46:34.144Z,7.20
2023-05-03T03:49:04.544Z,7.30
2023-05-03T03:51:36.020Z,7.30
2023-05-03T03:54:03.550Z,7.40
2023-05-03T03:56:30.614Z,7.50
2023-05-03T03:58:57.762Z,7.40
2023-05-03T04:01:25.548Z,7.60
2023-05-03T04:03:52.748Z,7.60
2023-05-03T04:06:20.381Z,7.60
2023-05-03T04:08:48.781Z,7.40
2023-05-03T04:11:19.405Z,7.30
2023-05-03T04:13:46.995Z,7.40
2023-05-03T04:16:17.256Z,7.30
2023-05-03T04:18:47.833Z,7.30
2023-05-03T04:21:14.838Z,7.30
2023-05-03T04:23:41.831Z,7.30
2023-05-03T04:26:23.604Z,7.30
2023-05-03T04:28:57.451Z,7.50
2023-05-03T04:31:25.082Z,7.50
2023-05-03T04:33:52.705Z,7.50
2023-05-03T04:36:19.694Z,7.50
2023-05-03T04:38:47.196Z,7.60
2023-05-03T04:41:16.233Z,7.70
2023-05-03T04:43:43.619Z,7.80
2023-05-03T04:46:11.656Z,7.90
2023-05-03T04:48:39.235Z,7.90
2023-05-03T04:51:08.415Z,7.90
2023-05-03T04:53:35.478Z,7.90
2023-05-03T04:56:02.564Z,7.90
2023-05-03T04:58:30.827Z,8.00
2023-05-03T05:00:57.947Z,8.00
2023-05-03T05:03:25.631Z,8.10
2023-05-03T05:05:52.804Z,8.10
2023-05-03T05:08:21.301Z,8.10
2023-05-03T05:10:48.609Z,8.20
2023-05-03T05:13:16.149Z,8.20
2023-05-03T05:15:48.073Z,8.30
2023-05-03T05:18:15.108Z,8.30
2023-05-03T05:20:42.646Z,8.40
2023-05-03T05:23:12.773Z,8.50
2023-05-03T05:25:43.077Z,8.50
2023-05-03T05:28:11.128Z,8.50
2023-05-03T05:30:38.210Z,8.50
2023-05-03T05:33:06.526Z,8.50
2023-05-03T05:35:34.577Z,8.40
2023-05-03T05:38:07.747Z,8.40
2023-05-03T05:40:35.246Z,8.50
2023-05-03T05:43:05.767Z,8.50
2023-05-03T05:45:34.367Z,8.60
2023-05-03T05:48:02.912Z,8.70
2023-05-03T05:50:31.623Z,8.80
2023-05-03T05:52:58.615Z,8.90
2023-05-03T05:55:26.486Z,9.00
2023-05-03T05:57:53.665Z,9.10
2023-05-03T06:00:22.003Z,9.20
2023-05-03T06:02:49.370Z,9.20
2023-05-03T06:05:17.255Z,9.30
2023-05-03T06:07:45.801Z,9.40
2023-05-03T06:10:12.891Z,9.40
2023-05-03T06:12:40.478Z,9.50
2023-05-03T06:15:08.862Z,9.50
2023-05-03T06:17:36.373Z,9.60
2023-05-03T06:20:11.900Z,9.60
2023-05-03T06:22:38.923Z,9.60
2023-05-03T06:25:09.231Z,9.70
2023-05-03T06:27:36.714Z,9.80
2023-05-03T06:30:05.390Z,9.90
2023-05-03T06:32:32.955Z,10.00
2023-05-03T06:35:00.221Z,10.00
2023-05-03T06:37:27.733Z,10.10
2023-05-03T06:39:54.816Z,10.20
2023-05-03T06:42:26.250Z,10.30
2023-05-03T06:44:53.921Z,10.30
2023-05-03T06:47:24.429Z,10.30
2023-05-03T06:49:51.670Z,10.30
2023-05-03T06:52:19.196Z,10.40
2023-05-03T06:54:46.187Z,10.50
2023-05-03T06:57:13.168Z,10.60
2023-05-03T06:59:42.176Z,10.80
2023-05-03T07:02:09.366Z,11.00
2023-05-03T07:04:38.212Z,11.70
2023-05-03T07:07:06.485Z,12.40
2023-05-03T07:09:42.679Z,13.00
2023-05-03T07:12:11.205Z,13.40
2023-05-03T07:14:43.283Z,13.90
2023-05-03T07:17:14.068Z,14.40
2023-05-03T07:19:43.891Z,14.40
2023-05-03T07:22:13.076Z,14.20
2023-05-03T07:24:44.005Z,14.00
2023-05-03T07:27:11.886Z,13.80
2023-05-03T07:29:39.243Z,14.10
2023-05-03T07:32:08.361Z,14.20
2023-05-03T07:34:36.451Z,14.60
2023-05-03T07:37:03.394Z,15.10
2023-05-03T07:39:31.479Z,15.60
2023-05-03T07:42:04.146Z,15.80
2023-05-03T07:44:31.633Z,16.20
2023-05-03T07:47:01.907Z,16.30
2023-05-03T07:49:31.438Z,16.30
2023-05-03T07:51:59.567Z,16.50
2023-05-03T07:54:33.049Z,16.70
2023-05-03T07:57:00.588Z,17.20
2023-05-03T07:59:27.600Z,17.80
2023-05-03T08:01:58.301Z,18.30
2023-05-03T08:04:28.091Z,18.60
2023-05-03T08:06:57.269Z,18.60
2023-05-03T08:09:31.205Z,18.40
2023-05-03T08:11:59.158Z,18.60
2023-05-03T08:14:28.010Z,18.80
2023-05-03T08:16:55.560Z,18.40
2023-05-03T08:19:26.234Z,18.30
2023-05-03T08:21:54.483Z,18.00
2023-05-03T08:24:24.039Z,18.00
2023-05-03T08:26:55.679Z,18.10
2023-05-03T08:29:22.770Z,18.20
2023-05-03T08:31:50.375Z,18.20
2023-05-03T08:34:18.939Z,17.90
2023-05-03T08:36:46.088Z,17.90
2023-05-03T08:39:15.216Z,18.00
2023-05-03T08:41:44.347Z,17.90
2023-05-03T08:44:13.118Z,17.70
2023-05-03T08:46:43.534Z,17.70
2023-05-03T08:49:12.731Z,17.80
2023-05-03T08:51:47.547Z,18.20
2023-05-03T08:54:22.556Z,18.30
2023-05-03T08:56:54.282Z,18.20
2023-05-03T08:59:21.596Z,18.20
2023-05-03T09:01:58.008Z,18.20
2023-05-03T09:04:35.102Z,18.10
2023-05-03T09:07:11.950Z,18.00
2023-05-03T09:09:39.271Z,17.90
2023-05-03T09:12:07.793Z,17.80
2023-05-03T09:14:43.872Z,17.70
2023-05-03T09:17:21.863Z,17.50
2023-05-03T09:19:54.192Z,17.20
2023-05-03T09:22:23.087Z,17.00
2023-05-03T09:24:54.553Z,16.80
2023-05-03T09:29:53.142Z,16.50
2023-05-03T09:32:24.622Z,16.40
2023-05-03T09:35:10.378Z,16.20
2023-05-03T09:37:40.496Z,16.20
2023-05-03T09:40:10.148Z,16.20
2023-05-03T09:43:07.737Z,16.10
2023-05-03T09:45:35.519Z,16.10
2023-05-03T09:48:05.297Z,16.10
2023-05-03T09:50:33.534Z,16.20
2023-05-03T09:53:04.359Z,16.10
2023-05-03T09:55:36.781Z,16.10
2023-05-03T09:58:09.208Z,16.20
2023-05-03T10:00:40.534Z,16.30
2023-05-03T10:03:10.361Z,16.30
2023-05-03T10:05:46.344Z,16.40
2023-05-03T10:08:27.494Z,16.50
2023-05-03T10:10:55.344Z,16.70
2023-05-03T10:16:13.810Z,16.70
2023-05-03T10:18:49.510Z,16.80
2023-05-03T10:21:26.631Z,16.80
2023-05-03T10:24:13.776Z,16.80
2023-05-03T10:29:51.409Z,16.80
2023-05-03T10:32:33.449Z,16.70
2023-05-03T10:35:04.350Z,16.70
2023-05-03T10:37:34.667Z,16.70
2023-05-03T10:40:11.417Z,16.80
2023-05-03T10:42:40.000Z,16.80
2023-05-03T10:45:12.544Z,16.80
2023-05-03T10:47:41.336Z,16.60
2023-05-03T10:50:29.644Z,16.70
2023-05-03T10:52:59.775Z,16.80
2023-05-03T10:55:30.239Z,16.70
2023-05-03T10:58:00.068Z,16.80
2023-05-03T11:00:37.865Z,16.70
2023-05-03T11:03:46.337Z,16.60
2023-05-03T11:06:32.865Z,16.80
2023-05-03T11:09:00.940Z,16.70
2023-05-03T11:11:28.227Z,16.70
2023-05-03T11:13:55.476Z,16.60
2023-05-03T11:16:26.890Z,16.70
2023-05-03T11:18:54.413Z,16.70
2023-05-03T11:21:22.804Z,16.80
2023-05-03T11:23:49.818Z,16.80
2023-05-03T11:26:17.408Z,16.80
2023-05-03T11:28:44.782Z,16.90
2023-05-03T11:31:13.604Z,16.80
2023-05-03T11:33:42.449Z,16.90
2023-05-03T11:36:10.069Z,16.80
2023-05-03T11:38:39.867Z,16.90
2023-05-03T11:41:14.355Z,16.90
2023-05-03T11:43:45.465Z,17.00
2023-05-03T11:46:19.181Z,16.90
2023-05-03T11:48:54.146Z,16.90
2023-05-03T11:51:23.781Z,16.90
2023-05-03T11:53:54.022Z,16.90
2023-05-03T11:56:22.739Z,16.90
2023-05-03T11:58:52.858Z,16.90
2023-05-03T12:01:23.518Z,16.90
2023-05-03T12:03:56.962Z,16.90
2023-05-03T12:06:28.707Z,16.90
2023-05-03T12:09:00.168Z,17.00
2023-05-03T12:11:30.417Z,16.90
2023-05-03T12:14:01.050Z,17.00
2023-05-03T12:16:29.365Z,17.00
2023-05-03T12:19:03.121Z,17.10
2023-05-03T12:24:24.600Z,17.00
2023-05-03T12:26:56.004Z,17.10
2023-05-03T12:29:25.026Z,17.10
2023-05-03T12:31:52.559Z,17.20
2023-05-03T12:34:32.460Z,17.20
2023-05-03T12:37:06.599Z,17.20
2023-05-03T12:39:40.653Z,17.20
2023-05-03T12:42:09.268Z,17.20
2023-05-03T12:44:41.830Z,17.20
2023-05-03T12:47:16.911Z,17.20
2023-05-03T12:49:52.590Z,17.20
2023-05-03T12:52:37.096Z,17.20
2023-05-03T12:55:11.090Z,17.30
2023-05-03T12:57:40.128Z,17.20
2023-05-03T13:00:14.498Z,17.20
2023-05-03T13:05:30.408Z,17.40
2023-05-03T13:10:41.376Z,17.40
2023-05-03T13:13:11.411Z,17.50
2023-05-03T13:15:39.462Z,17.50
2023-05-03T13:18:07.763Z,17.50
2023-05-03T13:20:37.754Z,17.50
2023-05-03T13:23:04.860Z,17.50
2023-05-03T13:26:16.361Z,17.50
2023-05-03T13:28:44.314Z,17.50
2023-05-03T13:31:11.907Z,17.50
2023-05-03T13:33:39.419Z,17.60
2023-05-03T13:36:14.521Z,17.60
2023-05-03T13:38:44.768Z,17.70
2023-05-03T13:41:12.836Z,17.70
2023-05-03T13:43:42.027Z,17.80
2023-05-03T13:46:16.072Z,17.70
2023-05-03T13:48:46.355Z,17.80
2023-05-03T13:51:15.442Z,17.80
2023-05-03T13:53:43.887Z,17.80
2023-05-03T13:56:11.206Z,17.80
2023-05-03T13:58:40.158Z,17.80
2023-05-03T14:01:08.599Z,17.90
2023-05-03T14:03:44.561Z,17.90
2023-05-03T14:06:20.608Z,17.90
2023-05-03T14:08:47.772Z,17.90
2023-05-03T14:11:15.717Z,17.90
2023-05-03T14:13:56.615Z,17.90
2023-05-03T14:16:39.946Z,18.00
2023-05-03T14:19:10.808Z,18.00
2023-05-03T14:21:42.275Z,18.10
2023-05-03T14:24:09.645Z,18.10
2023-05-03T14:26:37.892Z,18.20
2023-05-03T14:29:05.897Z,18.20
2023-05-03T14:31:36.936Z,18.10
2023-05-03T14:34:06.673Z,18.10
2023-05-03T14:36:38.454Z,18.10
2023-05-03T14:39:07.158Z,18.10
2023-05-03T14:41:34.745Z,18.10
2023-05-03T14:44:02.510Z,18.10
2023-05-03T14:46:29.697Z,18.10
2023-05-03T14:48:57.600Z,18.20
2023-05-03T14:51:25.074Z,18.20
2023-05-03T14:54:01.364Z,18.10
2023-05-03T14:56:32.382Z,18.10
2023-05-03T14:59:01.034Z,18.20
2023-05-03T15:01:28.527Z,18.20
2023-05-03T15:03:58.740Z,18.20
2023-05-03T15:06:28.987Z,18.20
2023-05-03T15:08:56.427Z,18.20
2023-05-03T15:11:23.690Z,18.30
2023-05-03T15:14:00.229Z,18.20
2023-05-03T15:16:27.540Z,18.30
2023-05-03T15:18:54.541Z,18.20
2023-05-03T15:21:22.337Z,18.30
2023-05-03T15:23:59.025Z,18.30
2023-05-03T15:26:27.352Z,18.30
2023-05-03T15:28:56.077Z,18.30
2023-05-03T15:31:23.352Z,18.30
2023-05-03T15:33:51.766Z,18.30
2023-05-03T15:36:19.005Z,18.40
2023-05-03T15:38:46.723Z,18.40
2023-05-03T15:41:13.750Z,18.40
2023-05-03T15:43:40.933Z,18.40
2023-05-03T15:46:09.444Z,18.40
2023-05-03T15:48:36.936Z,18.30
2023-05-03T15:51:04.982Z,18.30
2023-05-03T15:53:32.330Z,18.30
2023-05-03T15:55:59.469Z,18.30
2023-05-03T15:58:29.091Z,18.40
2023-05-03T16:00:56.994Z,18.30
2023-05-03T16:03:27.221Z,18.30
2023-05-03T16:05:57.120Z,18.30
2023-05-03T16:08:24.628Z,18.30
2023-05-03T16:10:52.239Z,18.40
2023-05-03T16:13:19.636Z,18.30
2023-05-03T16:15:47.536Z,18.30
2023-05-03T16:18:17.401Z,18.40
2023-05-03T16:20:45.883Z,18.30
2023-05-03T16:23:13.099Z,18.30
2023-05-03T16:25:40.397Z,18.30
2023-05-03T16:28:13.951Z,18.40
2023-05-03T16:30:41.185Z,18.40
2023-05-03T16:33:08.928Z,18.40
2023-05-03T16:35:36.520Z,18.40
2023-05-03T16:38:05.170Z,18.30
2023-05-03T16:40:34.967Z,18.30
2023-05-03T16:43:02.382Z,18.30
2023-05-03T16:45:29.584Z,18.30
2023-05-03T16:47:57.136Z,18.30
2023-05-03T16:50:28.937Z,18.30
2023-05-03T16:52:59.468Z,18.30
2023-05-03T16:55:28.180Z,18.20
2023-05-03T16:57:55.263Z,18.20
2023-05-03T17:00:22.402Z,18.20
2023-05-03T17:02:49.842Z,18.20
2023-05-03T17:05:17.833Z,18.20
2023-05-03T17:07:46.699Z,18.10
2023-05-03T17:10:13.884Z,18.10
2023-05-03T17:12:42.664Z,18.10
2023-05-03T17:15:11.389Z,18.20
2023-05-03T17:17:41.412Z,18.20
2023-05-03T17:20:11.247Z,18.10
2023-05-03T17:22:39.913Z,18.10
2023-05-03T17:25:09.174Z,18.10
2023-05-03T17:27:38.629Z,18.10
2023-05-03T17:30:09.580Z,18.00
2023-05-03T17:32:37.067Z,18.00
2023-05-03T17:35:05.052Z,18.10
2023-05-03T17:37:32.312Z,18.10
2023-05-03T17:39:59.838Z,18.10
2023-05-03T17:42:33.271Z,18.00
2023-05-03T17:45:01.910Z,18.00
2023-05-03T17:47:30.583Z,18.00
2023-05-03T17:49:58.810Z,17.90
2023-05-03T17:52:26.736Z,18.00
2023-05-03T17:54:54.569Z,17.90
2023-05-03T17:57:24.771Z,17.90
2023-05-03T17:59:51.809Z,17.90
2023-05-03T18:02:19.592Z,17.90
2023-05-03T18:04:48.881Z,17.80
2023-05-03T18:07:16.671Z,17.80
2023-05-03T18:09:45.039Z,17.80
2023-05-03T18:12:14.268Z,17.70
2023-05-03T18:14:41.487Z,17.80
2023-05-03T18:17:08.913Z,17.70
2023-05-03T18:19:44.409Z,17.70
2023-05-03T18:22:14.010Z,17.60
2023-05-03T18:24:41.336Z,17.60
2023-05-03T18:27:13.419Z,17.60
2023-05-03T18:29:48.140Z,17.50
2023-05-03T18:32:15.690Z,17.50
2023-05-03T18:34:43.917Z,17.50
2023-05-03T18:37:18.634Z,17.40
2023-05-03T18:40:01.134Z,17.30
2023-05-03T18:42:29.288Z,17.20
2023-05-03T18:44:56.740Z,17.10
2023-05-03T18:47:24.946Z,17.00
2023-05-03T18:49:55.719Z,16.90
2023-05-03T18:52:27.691Z,16.80
2023-05-03T18:54:54.928Z,16.70
2023-05-03T18:57:22.127Z,16.60
2023-05-03T19:00:00.225Z,16.60
2023-05-03T19:02:32.371Z,16.50
2023-05-03T19:05:00.572Z,16.40
2023-05-03T19:07:29.402Z,16.30
2023-05-03T19:09:58.137Z,16.20
2023-05-03T19:12:25.380Z,16.00
2023-05-03T19:14:54.407Z,16.00
2023-05-03T19:17:24.285Z,15.90
2023-05-03T19:19:52.380Z,15.70
2023-05-03T19:22:22.989Z,15.60
2023-05-03T19:24:51.703Z,15.60
2023-05-03T19:27:19.008Z,15.50
2023-05-03T19:29:46.686Z,15.40
2023-05-03T19:32:14.467Z,15.30
2023-05-03T19:34:43.572Z,15.30
2023-05-03T19:37:10.736Z,15.20
2023-05-03T19:42:23.823Z,15.10
2023-05-03T19:44:51.397Z,15.00
2023-05-03T19:47:19.176Z,14.90
2023-05-03T19:49:46.322Z,14.80
2023-05-03T19:52:13.474Z,14.70
2023-05-03T19:54:40.664Z,14.60
2023-05-03T19:57:12.627Z,14.60
2023-05-03T19:59:41.383Z,14.50
2023-05-03T20:02:10.786Z,14.40
2023-05-03T20:04:38.030Z,14.40
2023-05-03T20:07:05.543Z,14.40
2023-05-03T20:09:34.373Z,14.40
2023-05-03T20:12:02.219Z,14.40
2023-05-03T20:14:29.931Z,14.40
2023-05-03T20:16:58.782Z,14.40
2023-05-03T20:19:26.718Z,14.40
2023-05-03T20:21:54.045Z,14.40
2023-05-03T20:24:22.265Z,14.40
2023-05-03T20:26:49.995Z,14.40
2023-05-03T20:29:17.397Z,14.20
2023-05-03T20:31:47.363Z,14.20
2023-05-03T20:34:16.942Z,14.10
2023-05-03T20:36:43.932Z,14.00
2023-05-03T20:39:14.566Z,14.00
2023-05-03T20:41:41.692Z,14.00
2023-05-03T20:44:08.899Z,14.00
2023-05-03T20:46:38.538Z,13.90
2023-05-03T20:49:10.029Z,13.90
2023-05-03T20:51:41.823Z,14.00
2023-05-03T20:54:10.201Z,13.90
2023-05-03T20:56:37.880Z,13.90
2023-05-03T20:59:07.288Z,13.90
2023-05-03T21:01:39.900Z,13.90
2023-05-03T21:04:09.130Z,13.80
2023-05-03T21:06:39.071Z,13.80
2023-05-03T21:09:06.544Z,13.60
2023-05-03T21:11:34.451Z,13.60
2023-05-03T21:14:02.289Z,13.60
2023-05-03T21:16:30.421Z,13.60
2023-05-03T21:18:57.791Z,13.60
2023-05-03T21:21:25.618Z,13.40
2023-05-03T21:23:56.669Z,13.30
2023-05-03T21:26:23.983Z,13.20
2023-05-03T21:28:51.573Z,13.30
2023-05-03T21:31:18.699Z,13.30
2023-05-03T21:33:46.523Z,13.20
2023-05-03T21:36:13.698Z,13.20
2023-05-03T21:38:41.459Z,13.10
2023-05-03T21:41:10.816Z,13.10
2023-05-03T21:43:38.506Z,13.00
2023-05-03T21:46:08.569Z,13.00
2023-05-03T21:48:37.099Z,13.00
2023-05-03T21:51:04.868Z,12.90
2023-05-03T21:53:32.381Z,12.90
2023-05-03T21:55:59.297Z,12.90
2023-05-03T21:58:27.658Z,12.80
2023-05-03T22:00:54.785Z,12.80
2023-05-03T22:03:22.350Z,12.70
2023-05-03T22:05:52.303Z,12.60
2023-05-03T22:08:20.211Z,12.60
2023-05-03T22:10:47.295Z,12.50
2023-05-03T22:13:14.936Z,12.60
2023-05-03T22:15:43.925Z,12.40
2023-05-03T22:18:11.491Z,12.50
2023-05-03T22:20:38.523Z,12.60
2023-05-03T22:23:05.594Z,12.40
2023-05-03T22:25:32.835Z,12.50
2023-05-03T22:28:01.242Z,12.40
2023-05-03T22:30:28.779Z,12.30
2023-05-03T22:32:57.247Z,12.30
2023-05-03T22:35:26.002Z,12.20
2023-05-03T22:37:53.369Z,12.30
2023-05-03T22:40:21.180Z,12.20
2023-05-03T22:42:48.329Z,12.20
2023-05-03T22:45:16.131Z,12.10
2023-05-03T22:47:43.754Z,12.10
2023-05-03T22:50:13.264Z,12.10
2023-05-03T22:52:41.262Z,12.10
2023-05-03T22:55:10.587Z,11.90
2023-05-03T22:57:40.571Z,11.90
2023-05-03T23:00:10.848Z,11.80
2023-05-03T23:02:38.416Z,12.00
2023-05-03T23:05:09.066Z,11.90
2023-05-03T23:07:37.510Z,12.00
2023-05-03T23:10:08.155Z,12.00
2023-05-03T23:12:36.299Z,11.90
2023-05-03T23:15:03.770Z,11.90
2023-05-03T23:17:31.460Z,11.80
2023-05-03T23:19:58.565Z,11.90
2023-05-03T23:22:28.447Z,11.80
2023-05-03T23:24:57.297Z,11.90
2023-05-03T23:27:24.743Z,11.80
2023-05-03T23:29:52.427Z,11.70
2023-05-03T23:32:21.510Z,11.70
2023-05-03T23:34:49.623Z,11.80
2023-05-03T23:37:16.870Z,11.60
2023-05-03T23:39:44.932Z,11.60
2023-05-03T23:42:13.605Z,11.50
2023-05-03T23:44:53.078Z,11.60
2023-05-03T23:47:22.617Z,11.40
2023-05-03T23:49:50.450Z,11.50
2023-05-03T23:52:18.944Z,11.40
2023-05-03T23:54:46.298Z,11.40
2023-05-03T23:57:15.601Z,11.40
2023-05-03T23:59:43.434Z,11.40
